createdAt,value
2022-11-24T00:01:36.196Z,100.00
2022-11-24T00:16:37.787Z,100.00
2022-11-24T00:31:40.647Z,100.00
2022-11-24T00:46:42.393Z,100.00
2022-11-24T01:01:44.018Z,100.00
2022-11-24T01:16:45.781Z,100.00
2022-11-24T01:31:47.245Z,100.00
2022-11-24T01:46:52.014Z,100.00
2022-11-24T02:01:54.876Z,100.00
2022-11-24T02:16:56.459Z,100.00
2022-11-24T02:32:03.404Z,100.00
2022-11-24T02:47:10.134Z,100.00
2022-11-24T03:02:11.645Z,100.00
2022-11-24T03:17:13.105Z,100.00
2022-11-24T03:32:14.556Z,100.00
2022-11-24T03:47:16.012Z,100.00
2022-11-24T04:02:17.536Z,100.00
2022-11-24T04:17:19.017Z,100.00
2022-11-24T04:32:20.771Z,100.00
2022-11-24T04:47:23.326Z,100.00
2022-11-24T05:02:25.010Z,100.00
2022-11-24T05:17:30.686Z,100.00
2022-11-24T05:32:32.161Z,100.00
2022-11-24T05:47:33.751Z,100.00
2022-11-24T06:02:35.603Z,100.00
2022-11-24T06:17:38.240Z,100.00
2022-11-24T06:32:49.095Z,100.00
2022-11-24T06:47:54.237Z,100.00
2022-11-24T07:02:55.758Z,100.00
2022-11-24T07:17:57.318Z,100.00
2022-11-24T07:32:59.532Z,100.00
2022-11-24T07:48:01.050Z,100.00
2022-11-24T08:03:02.533Z,100.00
2022-11-24T08:18:04.096Z,100.00
2022-11-24T08:33:05.876Z,100.00
2022-11-24T08:48:07.399Z,100.00
2022-11-24T09:03:12.111Z,100.00
2022-11-24T09:18:13.571Z,100.00
2022-11-24T09:33:15.030Z,100.00
2022-11-24T09:48:26.061Z,100.00
2022-11-24T10:03:53.637Z,100.00
2022-11-24T10:18:58.181Z,100.00
2022-11-24T10:34:17.403Z,100.00
2022-11-24T10:49:23.347Z,100.00
2022-11-24T11:04:32.972Z,100.00
2022-11-24T11:19:49.074Z,100.00
2022-11-24T11:34:52.244Z,100.00
2022-11-24T11:49:53.898Z,100.00
2022-11-24T12:05:00.696Z,100.00
2022-11-24T12:20:08.363Z,100.00
2022-11-24T12:35:28.850Z,100.00
2022-11-24T12:50:31.719Z,100.00
2022-11-24T13:05:47.204Z,96.58
2022-11-24T13:20:48.745Z,96.85
2022-11-24T13:36:02.618Z,97.76
2022-11-24T13:51:04.043Z,100.00
2022-11-24T14:06:05.813Z,90.10
2022-11-24T14:21:26.071Z,86.18
2022-11-24T14:36:27.604Z,83.99
2022-11-24T14:51:29.112Z,82.96
2022-11-24T15:06:30.598Z,83.75
2022-11-24T15:21:33.497Z,84.66
2022-11-24T15:36:35.019Z,87.52
2022-11-24T15:51:41.080Z,89.42
2022-11-24T16:06:42.520Z,90.97
2022-11-24T16:21:47.236Z,90.85
2022-11-24T16:36:48.734Z,93.54
2022-11-24T16:51:50.182Z,96.71
2022-11-24T17:06:51.820Z,94.57
2022-11-24T17:21:54.551Z,86.21
2022-11-24T17:36:55.986Z,86.84
2022-11-24T17:51:57.463Z,87.91
2022-11-24T18:06:58.950Z,87.03
2022-11-24T18:22:00.483Z,86.95
2022-11-24T18:37:02.029Z,87.56
2022-11-24T18:52:03.565Z,85.64
2022-11-24T19:07:05.159Z,83.72
2022-11-24T19:22:06.665Z,85.19
2022-11-24T19:37:08.212Z,85.55
2022-11-24T19:52:09.686Z,84.99
2022-11-24T20:07:11.215Z,87.38
2022-11-24T20:22:12.771Z,89.85
2022-11-24T20:37:14.448Z,86.47
2022-11-24T20:52:15.926Z,85.40
2022-11-24T21:07:17.503Z,95.97
2022-11-24T21:22:19.045Z,91.31
2022-11-24T21:37:20.581Z,90.29
2022-11-24T21:52:22.100Z,89.65
2022-11-24T22:16:10.952Z,88.83
2022-11-24T22:31:13.675Z,87.00
2022-11-24T22:46:16.930Z,88.18
2022-11-24T23:01:20.372Z,91.00
2022-11-24T23:16:22.456Z,90.38
2022-11-24T23:31:27.538Z,92.94
2022-11-24T23:46:29.253Z,94.68
